sensor_id;sensor_type;location;lat;lon;timestamp;P1;durP1;ratioP1;P2;durP2;ratioP2
75429;SDS011;64127;51.488;5.462;2023-02-02T00:00:03;10.47;;;3.30;;
75429;SDS011;64127;51.488;5.462;2023-02-02T00:02:37;14.77;;;3.80;;
75429;SDS011;64127;51.488;5.462;2023-02-02T00:05:09;13.67;;;3.97;;
75429;SDS011;64127;51.488;5.462;2023-02-02T00:07:41;13.40;;;3.93;;
75429;SDS011;64127;51.488;5.462;2023-02-02T00:10:13;14.63;;;4.10;;
75429;SDS011;64127;51.488;5.462;2023-02-02T00:12:45;13.10;;;3.73;;
75429;SDS011;64127;51.488;5.462;2023-02-02T00:15:17;11.00;;;3.40;;
75429;SDS011;64127;51.488;5.462;2023-02-02T00:17:49;13.40;;;3.73;;
75429;SDS011;64127;51.488;5.462;2023-02-02T00:20:21;11.53;;;3.90;;
75429;SDS011;64127;51.488;5.462;2023-02-02T00:22:54;18.53;;;4.20;;
75429;SDS011;64127;51.488;5.462;2023-02-02T00:25:27;11.70;;;3.87;;
75429;SDS011;64127;51.488;5.462;2023-02-02T00:27:59;11.70;;;3.60;;
75429;SDS011;64127;51.488;5.462;2023-02-02T00:30:31;12.93;;;4.07;;
75429;SDS011;64127;51.488;5.462;2023-02-02T00:33:03;11.03;;;3.83;;
75429;SDS011;64127;51.488;5.462;2023-02-02T00:35:35;13.43;;;4.17;;
75429;SDS011;64127;51.488;5.462;2023-02-02T00:38:11;11.77;;;3.97;;
75429;SDS011;64127;51.488;5.462;2023-02-02T00:40:44;13.30;;;3.87;;
75429;SDS011;64127;51.488;5.462;2023-02-02T00:43:16;13.33;;;3.60;;
75429;SDS011;64127;51.488;5.462;2023-02-02T00:45:48;10.27;;;3.57;;
75429;SDS011;64127;51.488;5.462;2023-02-02T00:48:20;14.50;;;3.73;;
75429;SDS011;64127;51.488;5.462;2023-02-02T00:50:53;13.97;;;3.67;;
75429;SDS011;64127;51.488;5.462;2023-02-02T00:53:25;11.23;;;3.53;;
75429;SDS011;64127;51.488;5.462;2023-02-02T00:55:57;11.27;;;3.40;;
75429;SDS011;64127;51.488;5.462;2023-02-02T00:58:29;17.73;;;3.90;;
75429;SDS011;64127;51.488;5.462;2023-02-02T01:01:01;12.50;;;3.70;;
75429;SDS011;64127;51.488;5.462;2023-02-02T01:03:33;14.07;;;3.70;;
75429;SDS011;64127;51.488;5.462;2023-02-02T01:06:05;11.13;;;3.33;;
75429;SDS011;64127;51.488;5.462;2023-02-02T01:08:37;17.83;;;3.73;;
75429;SDS011;64127;51.488;5.462;2023-02-02T01:11:09;12.03;;;3.87;;
75429;SDS011;64127;51.488;5.462;2023-02-02T01:13:41;13.80;;;3.83;;
75429;SDS011;64127;51.488;5.462;2023-02-02T01:16:14;11.73;;;3.20;;
75429;SDS011;64127;51.488;5.462;2023-02-02T01:18:46;13.30;;;3.93;;
75429;SDS011;64127;51.488;5.462;2023-02-02T01:21:19;11.73;;;3.63;;
75429;SDS011;64127;51.488;5.462;2023-02-02T01:23:51;10.57;;;3.17;;
75429;SDS011;64127;51.488;5.462;2023-02-02T01:26:23;11.90;;;3.67;;
75429;SDS011;64127;51.488;5.462;2023-02-02T01:28:55;10.93;;;3.73;;
75429;SDS011;64127;51.488;5.462;2023-02-02T01:31:28;10.80;;;3.70;;
75429;SDS011;64127;51.488;5.462;2023-02-02T01:34:00;10.80;;;3.60;;
75429;SDS011;64127;51.488;5.462;2023-02-02T01:36:32;16.33;;;3.90;;
75429;SDS011;64127;51.488;5.462;2023-02-02T01:39:04;14.07;;;3.40;;
75429;SDS011;64127;51.488;5.462;2023-02-02T01:41:36;14.67;;;3.90;;
75429;SDS011;64127;51.488;5.462;2023-02-02T01:47:51;12.50;;;3.67;;
75429;SDS011;64127;51.488;5.462;2023-02-02T01:50:30;13.70;;;3.87;;
75429;SDS011;64127;51.488;5.462;2023-02-02T01:53:05;10.37;;;3.37;;
75429;SDS011;64127;51.488;5.462;2023-02-02T01:55:38;11.73;;;3.83;;
75429;SDS011;64127;51.488;5.462;2023-02-02T01:58:14;16.57;;;3.93;;
75429;SDS011;64127;51.488;5.462;2023-02-02T02:01:00;13.60;;;4.07;;
75429;SDS011;64127;51.488;5.462;2023-02-02T02:03:32;10.83;;;3.63;;
75429;SDS011;64127;51.488;5.462;2023-02-02T02:06:08;11.67;;;3.70;;
75429;SDS011;64127;51.488;5.462;2023-02-02T02:11:23;14.10;;;3.80;;
75429;SDS011;64127;51.488;5.462;2023-02-02T02:13:57;14.53;;;3.93;;
75429;SDS011;64127;51.488;5.462;2023-02-02T02:23:15;14.47;;;4.13;;
75429;SDS011;64127;51.488;5.462;2023-02-02T02:26:36;10.70;;;3.70;;
75429;SDS011;64127;51.488;5.462;2023-02-02T02:41:31;13.60;;;3.70;;
75429;SDS011;64127;51.488;5.462;2023-02-02T02:44:15;12.67;;;3.60;;
75429;SDS011;64127;51.488;5.462;2023-02-02T02:46:49;12.57;;;3.87;;
75429;SDS011;64127;51.488;5.462;2023-02-02T02:49:23;16.87;;;3.73;;
75429;SDS011;64127;51.488;5.462;2023-02-02T02:51:55;9.50;;;3.53;;
75429;SDS011;64127;51.488;5.462;2023-02-02T02:54:28;15.70;;;3.90;;
75429;SDS011;64127;51.488;5.462;2023-02-02T03:00:22;12.23;;;3.90;;
75429;SDS011;64127;51.488;5.462;2023-02-02T03:06:15;12.63;;;3.77;;
75429;SDS011;64127;51.488;5.462;2023-02-02T03:11:43;15.80;;;3.67;;
75429;SDS011;64127;51.488;5.462;2023-02-02T03:14:16;12.37;;;3.83;;
75429;SDS011;64127;51.488;5.462;2023-02-02T03:16:51;13.97;;;3.93;;
75429;SDS011;64127;51.488;5.462;2023-02-02T03:19:23;14.97;;;4.03;;
75429;SDS011;64127;51.488;5.462;2023-02-02T03:21:56;13.17;;;3.70;;
75429;SDS011;64127;51.488;5.462;2023-02-02T03:24:28;13.70;;;4.07;;
75429;SDS011;64127;51.488;5.462;2023-02-02T03:27:00;11.83;;;3.83;;
75429;SDS011;64127;51.488;5.462;2023-02-02T03:29:32;14.07;;;3.40;;
75429;SDS011;64127;51.488;5.462;2023-02-02T03:32:04;14.70;;;4.03;;
75429;SDS011;64127;51.488;5.462;2023-02-02T03:34:36;14.27;;;4.20;;
75429;SDS011;64127;51.488;5.462;2023-02-02T03:37:08;9.00;;;3.63;;
75429;SDS011;64127;51.488;5.462;2023-02-02T03:39:40;15.10;;;4.00;;
75429;SDS011;64127;51.488;5.462;2023-02-02T03:42:12;15.60;;;4.97;;
75429;SDS011;64127;51.488;5.462;2023-02-02T03:44:44;10.13;;;3.30;;
75429;SDS011;64127;51.488;5.462;2023-02-02T03:47:16;12.77;;;3.87;;
75429;SDS011;64127;51.488;5.462;2023-02-02T03:49:48;13.77;;;3.83;;
75429;SDS011;64127;51.488;5.462;2023-02-02T03:52:20;10.13;;;3.50;;
75429;SDS011;64127;51.488;5.462;2023-02-02T03:54:52;13.00;;;3.83;;
75429;SDS011;64127;51.488;5.462;2023-02-02T03:57:24;16.70;;;4.00;;
75429;SDS011;64127;51.488;5.462;2023-02-02T03:59:56;10.67;;;3.60;;
75429;SDS011;64127;51.488;5.462;2023-02-02T04:02:28;18.83;;;4.20;;
75429;SDS011;64127;51.488;5.462;2023-02-02T04:05:00;10.63;;;3.77;;
75429;SDS011;64127;51.488;5.462;2023-02-02T04:07:32;13.63;;;3.90;;
75429;SDS011;64127;51.488;5.462;2023-02-02T04:10:04;11.57;;;4.20;;
75429;SDS011;64127;51.488;5.462;2023-02-02T04:12:37;14.63;;;3.57;;
75429;SDS011;64127;51.488;5.462;2023-02-02T04:15:09;13.33;;;3.77;;
75429;SDS011;64127;51.488;5.462;2023-02-02T04:17:41;12.47;;;3.33;;
75429;SDS011;64127;51.488;5.462;2023-02-02T04:20:13;12.60;;;4.17;;
75429;SDS011;64127;51.488;5.462;2023-02-02T04:22:45;12.90;;;4.30;;
75429;SDS011;64127;51.488;5.462;2023-02-02T04:25:17;14.23;;;3.83;;
75429;SDS011;64127;51.488;5.462;2023-02-02T04:27:49;13.67;;;3.77;;
75429;SDS011;64127;51.488;5.462;2023-02-02T04:30:22;18.43;;;4.13;;
75429;SDS011;64127;51.488;5.462;2023-02-02T04:32:53;14.17;;;3.80;;
75429;SDS011;64127;51.488;5.462;2023-02-02T04:35:26;14.73;;;3.87;;
75429;SDS011;64127;51.488;5.462;2023-02-02T04:37:58;13.83;;;3.73;;
75429;SDS011;64127;51.488;5.462;2023-02-02T04:40:30;15.07;;;4.17;;
75429;SDS011;64127;51.488;5.462;2023-02-02T04:43:02;11.87;;;3.47;;
75429;SDS011;64127;51.488;5.462;2023-02-02T04:45:34;16.77;;;3.83;;
75429;SDS011;64127;51.488;5.462;2023-02-02T04:48:06;12.13;;;3.53;;
75429;SDS011;64127;51.488;5.462;2023-02-02T04:50:38;12.33;;;3.43;;
75429;SDS011;64127;51.488;5.462;2023-02-02T04:53:10;10.00;;;3.30;;
75429;SDS011;64127;51.488;5.462;2023-02-02T04:55:42;11.43;;;3.70;;
75429;SDS011;64127;51.488;5.462;2023-02-02T04:58:14;13.77;;;3.73;;
75429;SDS011;64127;51.488;5.462;2023-02-02T05:00:46;13.03;;;3.83;;
75429;SDS011;64127;51.488;5.462;2023-02-02T05:03:18;16.83;;;3.70;;
75429;SDS011;64127;51.488;5.462;2023-02-02T05:05:50;10.40;;;3.27;;
75429;SDS011;64127;51.488;5.462;2023-02-02T05:08:22;17.03;;;4.10;;
75429;SDS011;64127;51.488;5.462;2023-02-02T05:10:54;13.13;;;3.50;;
75429;SDS011;64127;51.488;5.462;2023-02-02T05:13:26;12.43;;;3.63;;
75429;SDS011;64127;51.488;5.462;2023-02-02T05:15:58;12.80;;;4.00;;
75429;SDS011;64127;51.488;5.462;2023-02-02T05:18:30;12.67;;;3.60;;
75429;SDS011;64127;51.488;5.462;2023-02-02T05:21:02;11.20;;;3.37;;
75429;SDS011;64127;51.488;5.462;2023-02-02T05:23:35;14.00;;;3.53;;
75429;SDS011;64127;51.488;5.462;2023-02-02T05:26:09;10.87;;;3.83;;
75429;SDS011;64127;51.488;5.462;2023-02-02T05:28:46;13.97;;;3.53;;
75429;SDS011;64127;51.488;5.462;2023-02-02T05:31:19;12.87;;;4.00;;
75429;SDS011;64127;51.488;5.462;2023-02-02T05:33:52;11.63;;;3.60;;
75429;SDS011;64127;51.488;5.462;2023-02-02T05:36:24;14.47;;;4.30;;
75429;SDS011;64127;51.488;5.462;2023-02-02T05:38:56;11.87;;;3.57;;
75429;SDS011;64127;51.488;5.462;2023-02-02T05:41:28;13.47;;;4.13;;
75429;SDS011;64127;51.488;5.462;2023-02-02T05:44:01;11.67;;;3.80;;
75429;SDS011;64127;51.488;5.462;2023-02-02T05:46:34;14.50;;;4.00;;
75429;SDS011;64127;51.488;5.462;2023-02-02T05:49:06;13.80;;;3.70;;
75429;SDS011;64127;51.488;5.462;2023-02-02T05:51:45;12.17;;;3.33;;
75429;SDS011;64127;51.488;5.462;2023-02-02T05:54:20;13.30;;;3.57;;
75429;SDS011;64127;51.488;5.462;2023-02-02T05:56:52;11.83;;;3.63;;
75429;SDS011;64127;51.488;5.462;2023-02-02T05:59:26;13.60;;;3.87;;
75429;SDS011;64127;51.488;5.462;2023-02-02T06:01:59;12.47;;;4.00;;
75429;SDS011;64127;51.488;5.462;2023-02-02T06:04:31;14.47;;;4.27;;
75429;SDS011;64127;51.488;5.462;2023-02-02T06:07:03;13.50;;;3.87;;
75429;SDS011;64127;51.488;5.462;2023-02-02T06:09:35;12.50;;;3.67;;
75429;SDS011;64127;51.488;5.462;2023-02-02T06:12:07;11.13;;;4.00;;
75429;SDS011;64127;51.488;5.462;2023-02-02T06:14:40;13.43;;;4.23;;
75429;SDS011;64127;51.488;5.462;2023-02-02T06:17:11;13.00;;;3.90;;
75429;SDS011;64127;51.488;5.462;2023-02-02T06:19:43;12.10;;;3.63;;
75429;SDS011;64127;51.488;5.462;2023-02-02T06:22:15;13.33;;;3.83;;
75429;SDS011;64127;51.488;5.462;2023-02-02T06:24:47;12.67;;;4.00;;
75429;SDS011;64127;51.488;5.462;2023-02-02T06:27:19;13.40;;;3.80;;
75429;SDS011;64127;51.488;5.462;2023-02-02T06:29:51;14.57;;;3.77;;
75429;SDS011;64127;51.488;5.462;2023-02-02T06:32:23;13.20;;;4.10;;
75429;SDS011;64127;51.488;5.462;2023-02-02T06:34:55;10.57;;;3.60;;
75429;SDS011;64127;51.488;5.462;2023-02-02T06:37:27;11.87;;;3.70;;
75429;SDS011;64127;51.488;5.462;2023-02-02T06:40:01;12.80;;;3.23;;
75429;SDS011;64127;51.488;5.462;2023-02-02T06:42:33;15.47;;;4.10;;
75429;SDS011;64127;51.488;5.462;2023-02-02T06:45:05;15.17;;;4.60;;
75429;SDS011;64127;51.488;5.462;2023-02-02T06:47:37;13.87;;;4.37;;
75429;SDS011;64127;51.488;5.462;2023-02-02T06:50:09;11.03;;;3.90;;
75429;SDS011;64127;51.488;5.462;2023-02-02T06:52:48;15.43;;;4.17;;
75429;SDS011;64127;51.488;5.462;2023-02-02T06:55:22;15.43;;;3.97;;
75429;SDS011;64127;51.488;5.462;2023-02-02T06:57:58;12.10;;;3.87;;
75429;SDS011;64127;51.488;5.462;2023-02-02T07:00:31;14.47;;;4.07;;
75429;SDS011;64127;51.488;5.462;2023-02-02T07:03:07;14.23;;;3.90;;
75429;SDS011;64127;51.488;5.462;2023-02-02T07:05:39;12.30;;;3.87;;
75429;SDS011;64127;51.488;5.462;2023-02-02T07:08:11;17.17;;;3.97;;
75429;SDS011;64127;51.488;5.462;2023-02-02T07:10:43;13.37;;;3.67;;
75429;SDS011;64127;51.488;5.462;2023-02-02T07:13:34;14.70;;;3.80;;
75429;SDS011;64127;51.488;5.462;2023-02-02T07:16:06;12.47;;;4.03;;
75429;SDS011;64127;51.488;5.462;2023-02-02T07:18:43;14.27;;;4.05;;
75429;SDS011;64127;51.488;5.462;2023-02-02T07:21:18;12.40;;;3.83;;
75429;SDS011;64127;51.488;5.462;2023-02-02T07:23:53;12.30;;;3.67;;
75429;SDS011;64127;51.488;5.462;2023-02-02T07:26:25;14.87;;;4.30;;
75429;SDS011;64127;51.488;5.462;2023-02-02T07:28:57;13.83;;;3.67;;
75429;SDS011;64127;51.488;5.462;2023-02-02T07:31:29;12.07;;;3.77;;
75429;SDS011;64127;51.488;5.462;2023-02-02T07:34:05;13.53;;;3.73;;
75429;SDS011;64127;51.488;5.462;2023-02-02T07:36:37;18.27;;;4.73;;
75429;SDS011;64127;51.488;5.462;2023-02-02T07:39:10;12.40;;;3.93;;
75429;SDS011;64127;51.488;5.462;2023-02-02T07:41:42;14.53;;;4.30;;
75429;SDS011;64127;51.488;5.462;2023-02-02T07:44:14;11.83;;;4.30;;
75429;SDS011;64127;51.488;5.462;2023-02-02T07:46:47;13.63;;;3.90;;
75429;SDS011;64127;51.488;5.462;2023-02-02T07:49:19;13.80;;;4.20;;
75429;SDS011;64127;51.488;5.462;2023-02-02T07:51:51;14.27;;;3.83;;
75429;SDS011;64127;51.488;5.462;2023-02-02T07:54:23;13.90;;;3.70;;
75429;SDS011;64127;51.488;5.462;2023-02-02T07:56:55;13.33;;;3.90;;
75429;SDS011;64127;51.488;5.462;2023-02-02T07:59:27;13.53;;;4.03;;
75429;SDS011;64127;51.488;5.462;2023-02-02T08:02:02;12.97;;;3.83;;
75429;SDS011;64127;51.488;5.462;2023-02-02T08:04:34;11.03;;;3.50;;
75429;SDS011;64127;51.488;5.462;2023-02-02T08:07:06;13.37;;;4.30;;
75429;SDS011;64127;51.488;5.462;2023-02-02T08:09:38;10.80;;;3.67;;
75429;SDS011;64127;51.488;5.462;2023-02-02T08:12:17;11.43;;;3.90;;
75429;SDS011;64127;51.488;5.462;2023-02-02T08:14:51;11.47;;;3.93;;
75429;SDS011;64127;51.488;5.462;2023-02-02T08:17:23;12.80;;;3.50;;
75429;SDS011;64127;51.488;5.462;2023-02-02T08:19:55;13.30;;;4.10;;
75429;SDS011;64127;51.488;5.462;2023-02-02T08:22:27;14.90;;;3.90;;
75429;SDS011;64127;51.488;5.462;2023-02-02T08:24:59;11.87;;;3.77;;
75429;SDS011;64127;51.488;5.462;2023-02-02T08:27:31;11.17;;;4.10;;
75429;SDS011;64127;51.488;5.462;2023-02-02T08:30:03;13.70;;;4.03;;
75429;SDS011;64127;51.488;5.462;2023-02-02T08:32:35;12.37;;;4.03;;
75429;SDS011;64127;51.488;5.462;2023-02-02T08:35:07;10.33;;;3.23;;
75429;SDS011;64127;51.488;5.462;2023-02-02T08:37:39;10.83;;;3.50;;
75429;SDS011;64127;51.488;5.462;2023-02-02T08:40:11;12.17;;;3.90;;
75429;SDS011;64127;51.488;5.462;2023-02-02T08:42:44;9.17;;;3.73;;
75429;SDS011;64127;51.488;5.462;2023-02-02T08:45:17;13.53;;;3.73;;
75429;SDS011;64127;51.488;5.462;2023-02-02T08:48:09;9.93;;;3.50;;
75429;SDS011;64127;51.488;5.462;2023-02-02T08:50:43;10.87;;;3.20;;
75429;SDS011;64127;51.488;5.462;2023-02-02T08:53:15;13.27;;;3.97;;
75429;SDS011;64127;51.488;5.462;2023-02-02T08:55:47;10.93;;;3.30;;
75429;SDS011;64127;51.488;5.462;2023-02-02T08:58:27;13.17;;;3.20;;
75429;SDS011;64127;51.488;5.462;2023-02-02T09:01:06;10.43;;;3.30;;
75429;SDS011;64127;51.488;5.462;2023-02-02T09:03:44;11.93;;;3.33;;
75429;SDS011;64127;51.488;5.462;2023-02-02T09:06:17;12.47;;;3.40;;
75429;SDS011;64127;51.488;5.462;2023-02-02T09:08:51;11.43;;;3.30;;
75429;SDS011;64127;51.488;5.462;2023-02-02T09:11:23;11.37;;;3.43;;
75429;SDS011;64127;51.488;5.462;2023-02-02T09:13:56;9.23;;;2.90;;
75429;SDS011;64127;51.488;5.462;2023-02-02T09:16:31;11.63;;;3.60;;
75429;SDS011;64127;51.488;5.462;2023-02-02T09:19:05;9.03;;;3.00;;
75429;SDS011;64127;51.488;5.462;2023-02-02T09:21:37;10.10;;;2.87;;
75429;SDS011;64127;51.488;5.462;2023-02-02T09:24:12;8.63;;;3.20;;
75429;SDS011;64127;51.488;5.462;2023-02-02T09:26:44;12.47;;;3.37;;
75429;SDS011;64127;51.488;5.462;2023-02-02T09:29:16;12.93;;;3.37;;
75429;SDS011;64127;51.488;5.462;2023-02-02T09:31:48;11.80;;;3.20;;
75429;SDS011;64127;51.488;5.462;2023-02-02T09:34:20;14.87;;;3.80;;
75429;SDS011;64127;51.488;5.462;2023-02-02T09:36:52;9.33;;;3.00;;
75429;SDS011;64127;51.488;5.462;2023-02-02T09:39:24;8.87;;;2.93;;
75429;SDS011;64127;51.488;5.462;2023-02-02T09:42:00;13.83;;;3.13;;
75429;SDS011;64127;51.488;5.462;2023-02-02T09:50:29;10.53;;;3.27;;
75429;SDS011;64127;51.488;5.462;2023-02-02T09:53:25;9.83;;;2.87;;
75429;SDS011;64127;51.488;5.462;2023-02-02T09:56:26;10.67;;;3.10;;
75429;SDS011;64127;51.488;5.462;2023-02-02T09:59:11;10.50;;;3.30;;
75429;SDS011;64127;51.488;5.462;2023-02-02T10:01:55;9.77;;;2.90;;
75429;SDS011;64127;51.488;5.462;2023-02-02T10:04:35;9.10;;;2.87;;
75429;SDS011;64127;51.488;5.462;2023-02-02T10:07:12;9.60;;;2.83;;
75429;SDS011;64127;51.488;5.462;2023-02-02T10:10:04;8.53;;;2.70;;
75429;SDS011;64127;51.488;5.462;2023-02-02T10:13:02;12.53;;;3.30;;
75429;SDS011;64127;51.488;5.462;2023-02-02T10:19:00;9.77;;;3.23;;
75429;SDS011;64127;51.488;5.462;2023-02-02T10:21:59;11.00;;;3.13;;
75429;SDS011;64127;51.488;5.462;2023-02-02T10:24:43;9.97;;;2.83;;
75429;SDS011;64127;51.488;5.462;2023-02-02T10:27:16;9.63;;;3.30;;
75429;SDS011;64127;51.488;5.462;2023-02-02T10:30:15;9.93;;;3.20;;
75429;SDS011;64127;51.488;5.462;2023-02-02T10:33:04;8.47;;;3.20;;
75429;SDS011;64127;51.488;5.462;2023-02-02T10:38:58;11.23;;;3.60;;
75429;SDS011;64127;51.488;5.462;2023-02-02T10:44:36;9.83;;;3.40;;
75429;SDS011;64127;51.488;5.462;2023-02-02T10:47:50;13.80;;;3.97;;
75429;SDS011;64127;51.488;5.462;2023-02-02T10:50:22;11.97;;;3.77;;
75429;SDS011;64127;51.488;5.462;2023-02-02T10:52:55;11.37;;;3.30;;
75429;SDS011;64127;51.488;5.462;2023-02-02T10:58:42;12.17;;;3.23;;
75429;SDS011;64127;51.488;5.462;2023-02-02T11:01:25;10.10;;;3.40;;
75429;SDS011;64127;51.488;5.462;2023-02-02T11:03:57;10.57;;;3.40;;
75429;SDS011;64127;51.488;5.462;2023-02-02T11:06:48;10.80;;;3.30;;
75429;SDS011;64127;51.488;5.462;2023-02-02T11:09:22;12.77;;;3.13;;
75429;SDS011;64127;51.488;5.462;2023-02-02T11:12:08;12.47;;;3.80;;
75429;SDS011;64127;51.488;5.462;2023-02-02T11:18:45;12.93;;;3.40;;
75429;SDS011;64127;51.488;5.462;2023-02-02T11:21:00;14.73;;;4.33;;
75429;SDS011;64127;51.488;5.462;2023-02-02T11:23:32;12.20;;;3.67;;
75429;SDS011;64127;51.488;5.462;2023-02-02T11:26:04;10.67;;;2.83;;
75429;SDS011;64127;51.488;5.462;2023-02-02T11:28:37;9.53;;;3.20;;
75429;SDS011;64127;51.488;5.462;2023-02-02T11:31:10;10.17;;;3.10;;
75429;SDS011;64127;51.488;5.462;2023-02-02T11:33:44;11.13;;;3.20;;
75429;SDS011;64127;51.488;5.462;2023-02-02T11:36:19;11.13;;;3.50;;
75429;SDS011;64127;51.488;5.462;2023-02-02T11:42:03;8.17;;;2.87;;
75429;SDS011;64127;51.488;5.462;2023-02-02T11:44:57;9.80;;;3.80;;
75429;SDS011;64127;51.488;5.462;2023-02-02T11:47:30;12.57;;;3.80;;
75429;SDS011;64127;51.488;5.462;2023-02-02T11:50:04;12.00;;;3.63;;
75429;SDS011;64127;51.488;5.462;2023-02-02T11:52:36;14.70;;;3.70;;
75429;SDS011;64127;51.488;5.462;2023-02-02T11:55:17;11.80;;;3.37;;
75429;SDS011;64127;51.488;5.462;2023-02-02T11:58:08;9.97;;;3.17;;
75429;SDS011;64127;51.488;5.462;2023-02-02T12:06:43;10.77;;;4.00;;
75429;SDS011;64127;51.488;5.462;2023-02-02T12:09:16;12.60;;;3.60;;
75429;SDS011;64127;51.488;5.462;2023-02-02T12:17:46;11.37;;;3.50;;
75429;SDS011;64127;51.488;5.462;2023-02-02T12:23:36;12.30;;;3.30;;
75429;SDS011;64127;51.488;5.462;2023-02-02T12:26:36;10.50;;;3.50;;
75429;SDS011;64127;51.488;5.462;2023-02-02T12:29:24;10.50;;;3.17;;
75429;SDS011;64127;51.488;5.462;2023-02-02T12:32:20;14.70;;;3.53;;
75429;SDS011;64127;51.488;5.462;2023-02-02T12:38:44;9.90;;;3.27;;
75429;SDS011;64127;51.488;5.462;2023-02-02T13:00:49;10.87;;;3.37;;
75429;SDS011;64127;51.488;5.462;2023-02-02T13:04:20;14.13;;;3.57;;
75429;SDS011;64127;51.488;5.462;2023-02-02T13:07:19;9.53;;;3.50;;
75429;SDS011;64127;51.488;5.462;2023-02-02T13:10:20;12.00;;;3.10;;
75429;SDS011;64127;51.488;5.462;2023-02-02T13:13:12;11.40;;;3.37;;
75429;SDS011;64127;51.488;5.462;2023-02-02T13:15:51;7.20;;;2.77;;
75429;SDS011;64127;51.488;5.462;2023-02-02T13:18:52;11.40;;;3.40;;
75429;SDS011;64127;51.488;5.462;2023-02-02T13:21:36;6.43;;;2.87;;
75429;SDS011;64127;51.488;5.462;2023-02-02T13:24:13;7.43;;;2.83;;
75429;SDS011;64127;51.488;5.462;2023-02-02T13:26:55;10.53;;;3.33;;
75429;SDS011;64127;51.488;5.462;2023-02-02T13:29:46;8.87;;;3.00;;
75429;SDS011;64127;51.488;5.462;2023-02-02T13:32:33;7.97;;;3.13;;
75429;SDS011;64127;51.488;5.462;2023-02-02T13:35:19;9.60;;;3.10;;
75429;SDS011;64127;51.488;5.462;2023-02-02T13:38:15;10.37;;;3.43;;
75429;SDS011;64127;51.488;5.462;2023-02-02T13:40:56;10.27;;;3.17;;
75429;SDS011;64127;51.488;5.462;2023-02-02T13:46:45;8.13;;;3.07;;
75429;SDS011;64127;51.488;5.462;2023-02-02T13:49:36;9.67;;;3.17;;
75429;SDS011;64127;51.488;5.462;2023-02-02T14:01:19;8.20;;;2.87;;
75429;SDS011;64127;51.488;5.462;2023-02-02T14:03:54;9.37;;;2.77;;
75429;SDS011;64127;51.488;5.462;2023-02-02T14:06:27;8.17;;;2.50;;
75429;SDS011;64127;51.488;5.462;2023-02-02T14:09:27;10.00;;;3.20;;
75429;SDS011;64127;51.488;5.462;2023-02-02T14:12:05;9.00;;;2.50;;
75429;SDS011;64127;51.488;5.462;2023-02-02T14:14:41;10.03;;;2.97;;
75429;SDS011;64127;51.488;5.462;2023-02-02T14:19:55;9.43;;;2.93;;
75429;SDS011;64127;51.488;5.462;2023-02-02T14:22:42;6.33;;;2.23;;
75429;SDS011;64127;51.488;5.462;2023-02-02T14:28:37;7.17;;;2.70;;
75429;SDS011;64127;51.488;5.462;2023-02-02T14:31:25;9.30;;;2.80;;
75429;SDS011;64127;51.488;5.462;2023-02-02T14:43:26;10.83;;;3.20;;
75429;SDS011;64127;51.488;5.462;2023-02-02T14:46:20;6.70;;;2.97;;
75429;SDS011;64127;51.488;5.462;2023-02-02T14:49:06;7.93;;;2.90;;
75429;SDS011;64127;51.488;5.462;2023-02-02T14:51:52;8.37;;;3.27;;
75429;SDS011;64127;51.488;5.462;2023-02-02T14:54:30;7.70;;;3.00;;
75429;SDS011;64127;51.488;5.462;2023-02-02T14:59:57;9.97;;;3.10;;
75429;SDS011;64127;51.488;5.462;2023-02-02T15:02:32;10.77;;;3.43;;
75429;SDS011;64127;51.488;5.462;2023-02-02T15:11:09;9.67;;;3.20;;
75429;SDS011;64127;51.488;5.462;2023-02-02T15:14:01;9.77;;;3.17;;
75429;SDS011;64127;51.488;5.462;2023-02-02T15:16:43;10.47;;;3.80;;
75429;SDS011;64127;51.488;5.462;2023-02-02T15:19:21;8.03;;;3.33;;
75429;SDS011;64127;51.488;5.462;2023-02-02T15:24:54;7.93;;;3.10;;
75429;SDS011;64127;51.488;5.462;2023-02-02T15:27:30;10.20;;;3.20;;
75429;SDS011;64127;51.488;5.462;2023-02-02T15:30:03;7.90;;;3.07;;
75429;SDS011;64127;51.488;5.462;2023-02-02T15:32:43;7.77;;;3.13;;
75429;SDS011;64127;51.488;5.462;2023-02-02T15:35:18;9.50;;;3.40;;
75429;SDS011;64127;51.488;5.462;2023-02-02T15:37:59;10.80;;;3.43;;
75429;SDS011;64127;51.488;5.462;2023-02-02T15:40:36;12.83;;;3.70;;
75429;SDS011;64127;51.488;5.462;2023-02-02T15:43:09;10.17;;;3.97;;
75429;SDS011;64127;51.488;5.462;2023-02-02T15:48:22;9.83;;;3.63;;
75429;SDS011;64127;51.488;5.462;2023-02-02T15:51:04;8.17;;;3.50;;
75429;SDS011;64127;51.488;5.462;2023-02-02T15:53:48;11.13;;;3.80;;
75429;SDS011;64127;51.488;5.462;2023-02-02T15:58:55;8.00;;;3.80;;
75429;SDS011;64127;51.488;5.462;2023-02-02T16:01:30;8.93;;;4.30;;
75429;SDS011;64127;51.488;5.462;2023-02-02T16:04:19;9.87;;;4.40;;
75429;SDS011;64127;51.488;5.462;2023-02-02T16:07:02;10.00;;;4.23;;
75429;SDS011;64127;51.488;5.462;2023-02-02T16:09:40;9.20;;;3.93;;
75429;SDS011;64127;51.488;5.462;2023-02-02T16:12:17;7.60;;;3.90;;
75429;SDS011;64127;51.488;5.462;2023-02-02T16:14:52;12.27;;;4.53;;
75429;SDS011;64127;51.488;5.462;2023-02-02T16:17:27;9.83;;;4.17;;
75429;SDS011;64127;51.488;5.462;2023-02-02T16:20:08;8.60;;;4.43;;
75429;SDS011;64127;51.488;5.462;2023-02-02T16:22:47;9.07;;;4.10;;
75429;SDS011;64127;51.488;5.462;2023-02-02T16:25:21;6.97;;;3.93;;
75429;SDS011;64127;51.488;5.462;2023-02-02T16:27:55;7.50;;;4.40;;
75429;SDS011;64127;51.488;5.462;2023-02-02T16:30:32;8.82;;;4.88;;
75429;SDS011;64127;51.488;5.462;2023-02-02T16:36:16;8.33;;;4.07;;
75429;SDS011;64127;51.488;5.462;2023-02-02T16:38:57;6.63;;;3.73;;
75429;SDS011;64127;51.488;5.462;2023-02-02T16:41:34;13.20;;;3.83;;
75429;SDS011;64127;51.488;5.462;2023-02-02T16:46:59;11.43;;;4.13;;
75429;SDS011;64127;51.488;5.462;2023-02-02T16:49:32;11.83;;;4.30;;
75429;SDS011;64127;51.488;5.462;2023-02-02T16:54:41;10.40;;;4.60;;
75429;SDS011;64127;51.488;5.462;2023-02-02T16:57:24;9.30;;;4.37;;
75429;SDS011;64127;51.488;5.462;2023-02-02T17:00:03;6.70;;;3.60;;
75429;SDS011;64127;51.488;5.462;2023-02-02T17:02:39;8.13;;;4.30;;
75429;SDS011;64127;51.488;5.462;2023-02-02T17:05:20;9.57;;;4.40;;
75429;SDS011;64127;51.488;5.462;2023-02-02T17:08:04;9.10;;;4.30;;
75429;SDS011;64127;51.488;5.462;2023-02-02T17:10:38;7.97;;;4.40;;
75429;SDS011;64127;51.488;5.462;2023-02-02T17:13:33;8.87;;;4.10;;
75429;SDS011;64127;51.488;5.462;2023-02-02T17:16:10;8.20;;;4.57;;
75429;SDS011;64127;51.488;5.462;2023-02-02T17:18:47;9.27;;;4.50;;
75429;SDS011;64127;51.488;5.462;2023-02-02T17:21:21;11.43;;;4.10;;
75429;SDS011;64127;51.488;5.462;2023-02-02T17:23:56;7.93;;;3.70;;
75429;SDS011;64127;51.488;5.462;2023-02-02T17:26:27;8.00;;;3.80;;
75429;SDS011;64127;51.488;5.462;2023-02-02T17:29:00;6.00;;;3.97;;
75429;SDS011;64127;51.488;5.462;2023-02-02T17:31:35;6.70;;;3.73;;
75429;SDS011;64127;51.488;5.462;2023-02-02T17:34:10;7.37;;;3.70;;
75429;SDS011;64127;51.488;5.462;2023-02-02T17:36:47;6.00;;;3.90;;
75429;SDS011;64127;51.488;5.462;2023-02-02T17:39:19;5.33;;;3.30;;
75429;SDS011;64127;51.488;5.462;2023-02-02T17:41:51;5.63;;;3.37;;
75429;SDS011;64127;51.488;5.462;2023-02-02T17:44:23;9.43;;;4.27;;
75429;SDS011;64127;51.488;5.462;2023-02-02T17:46:56;7.57;;;4.65;;
75429;SDS011;64127;51.488;5.462;2023-02-02T17:49:28;6.93;;;4.10;;
75429;SDS011;64127;51.488;5.462;2023-02-02T17:51:59;7.67;;;4.53;;
75429;SDS011;64127;51.488;5.462;2023-02-02T17:54:32;9.37;;;4.40;;
75429;SDS011;64127;51.488;5.462;2023-02-02T17:57:03;9.97;;;4.50;;
75429;SDS011;64127;51.488;5.462;2023-02-02T17:59:35;5.10;;;3.80;;
75429;SDS011;64127;51.488;5.462;2023-02-02T18:02:09;6.90;;;4.40;;